createdAt,value
2023-01-06T00:01:07.538Z,8.23
2023-01-06T00:04:00.424Z,7.55
2023-01-06T00:06:45.952Z,6.32
2023-01-06T00:09:31.515Z,6.35
2023-01-06T00:12:16.648Z,5.82
2023-01-06T00:15:01.938Z,6.47
2023-01-06T00:17:47.057Z,7.07
2023-01-06T00:20:34.135Z,8.10
2023-01-06T00:23:19.414Z,5.47
2023-01-06T00:26:06.058Z,6.13
2023-01-06T00:28:56.315Z,7.97
2023-01-06T00:31:44.085Z,8.18
2023-01-06T00:34:29.601Z,8.65
2023-01-06T00:37:15.002Z,7.45
2023-01-06T00:40:00.186Z,7.22
2023-01-06T00:42:45.094Z,5.17
2023-01-06T00:45:31.197Z,7.55
2023-01-06T00:48:17.741Z,5.57
2023-01-06T00:51:02.885Z,8.10
2023-01-06T00:53:50.356Z,5.97
2023-01-06T00:56:37.551Z,6.33
2023-01-06T00:59:24.677Z,5.15
2023-01-06T01:02:10.232Z,6.60
2023-01-06T01:04:55.659Z,8.82
2023-01-06T01:07:41.102Z,5.43
2023-01-06T01:10:26.574Z,6.03
2023-01-06T01:13:11.471Z,4.80
2023-01-06T01:15:56.720Z,6.50
2023-01-06T01:18:41.873Z,4.68
2023-01-06T01:21:27.146Z,4.47
2023-01-06T01:24:12.421Z,6.93
2023-01-06T01:26:58.684Z,4.57
2023-01-06T01:29:43.721Z,6.70
2023-01-06T01:32:28.788Z,5.97
2023-01-06T01:35:14.207Z,5.57
2023-01-06T01:37:59.391Z,4.87
2023-01-06T01:40:49.296Z,4.25
2023-01-06T01:43:49.733Z,7.18
2023-01-06T01:46:43.960Z,4.65
2023-01-06T01:49:32.556Z,6.10
2023-01-06T01:52:20.117Z,6.93
2023-01-06T01:55:06.865Z,6.00
2023-01-06T01:57:58.766Z,4.30
2023-01-06T02:00:44.998Z,7.07
2023-01-06T02:03:30.227Z,6.80
2023-01-06T02:06:22.660Z,7.07
2023-01-06T02:09:19.115Z,4.30
2023-01-06T02:12:05.020Z,5.95
2023-01-06T02:14:50.268Z,5.55
2023-01-06T02:18:00.421Z,4.70
2023-01-06T02:21:15.269Z,6.60
2023-01-06T02:24:10.913Z,4.18
2023-01-06T02:27:14.823Z,9.90
2023-01-06T02:30:05.638Z,6.47
2023-01-06T02:33:15.348Z,6.50
2023-01-06T02:36:11.783Z,7.27
2023-01-06T02:39:07.219Z,6.60
2023-01-06T02:42:13.270Z,5.93
2023-01-06T02:45:23.179Z,5.80
2023-01-06T02:48:20.674Z,5.07
2023-01-06T02:51:24.107Z,5.87
2023-01-06T02:54:27.462Z,3.78
2023-01-06T02:57:26.155Z,4.90
2023-01-06T03:00:22.144Z,2.90
2023-01-06T03:03:16.937Z,6.32
2023-01-06T03:06:13.561Z,2.97
2023-01-06T03:09:00.618Z,10.50
2023-01-06T03:11:50.713Z,3.85
2023-01-06T03:14:45.738Z,4.00
2023-01-06T03:17:31.339Z,4.07
2023-01-06T03:20:16.813Z,7.17
2023-01-06T03:23:02.588Z,5.80
2023-01-06T03:25:48.676Z,5.03
2023-01-06T03:28:33.823Z,3.88
2023-01-06T03:31:32.297Z,3.47
2023-01-06T03:34:44.179Z,5.43
2023-01-06T03:37:46.326Z,3.83
2023-01-06T03:40:34.648Z,5.47
2023-01-06T03:43:35.692Z,5.03
2023-01-06T03:46:38.919Z,5.55
2023-01-06T03:49:33.124Z,2.83
2023-01-06T03:52:26.945Z,4.20
2023-01-06T03:55:18.097Z,3.75
2023-01-06T03:58:07.028Z,3.35
2023-01-06T04:00:53.908Z,4.22
2023-01-06T04:03:39.772Z,4.20
2023-01-06T04:06:25.512Z,3.30
2023-01-06T04:09:11.175Z,4.18
2023-01-06T04:12:15.472Z,5.03
2023-01-06T04:15:01.883Z,5.65
2023-01-06T04:17:48.198Z,3.43
2023-01-06T04:20:35.213Z,2.85
2023-01-06T04:23:33.908Z,3.88
2023-01-06T04:26:23.609Z,4.97
2023-01-06T04:29:09.473Z,4.97
2023-01-06T04:31:56.283Z,3.60
2023-01-06T04:34:41.502Z,3.30
2023-01-06T04:37:27.043Z,3.63
2023-01-06T04:40:12.554Z,6.75
2023-01-06T04:43:07.090Z,4.97
2023-01-06T04:45:52.733Z,4.80
2023-01-06T04:48:37.865Z,2.83
2023-01-06T04:51:23.196Z,3.50
2023-01-06T04:54:08.498Z,4.05
2023-01-06T04:56:54.080Z,4.53
2023-01-06T04:59:39.211Z,3.63
2023-01-06T05:02:24.298Z,4.28
2023-01-06T05:05:09.937Z,5.13
2023-01-06T05:07:55.543Z,3.42
2023-01-06T05:10:40.707Z,4.50
2023-01-06T05:13:25.751Z,4.40
2023-01-06T05:16:16.355Z,3.42
2023-01-06T05:19:02.121Z,4.28
2023-01-06T05:21:47.166Z,3.80
2023-01-06T05:24:32.280Z,3.25
2023-01-06T05:27:17.299Z,3.40
2023-01-06T05:30:02.505Z,4.78
2023-01-06T05:32:47.552Z,3.78
2023-01-06T05:35:32.698Z,6.40
2023-01-06T05:38:18.007Z,4.13
2023-01-06T05:41:03.329Z,4.30
2023-01-06T05:43:48.893Z,2.17
2023-01-06T05:46:34.195Z,2.45
2023-01-06T05:49:19.516Z,3.22
2023-01-06T05:52:04.666Z,2.97
2023-01-06T05:54:49.991Z,3.10
2023-01-06T05:57:36.030Z,3.42
2023-01-06T06:00:20.976Z,4.00
2023-01-06T06:03:06.088Z,2.25
2023-01-06T06:05:51.348Z,4.18
2023-01-06T06:08:36.418Z,3.97
2023-01-06T06:11:22.433Z,4.15
2023-01-06T06:14:10.604Z,3.15
2023-01-06T06:16:56.176Z,5.15
2023-01-06T06:19:41.257Z,3.53
2023-01-06T06:22:26.394Z,2.87
2023-01-06T06:25:11.662Z,4.25
2023-01-06T06:27:59.899Z,4.45
2023-01-06T06:30:45.143Z,2.70
2023-01-06T06:33:29.957Z,4.22
2023-01-06T06:36:17.952Z,5.77
2023-01-06T06:39:02.991Z,4.78
2023-01-06T06:41:48.075Z,2.55
2023-01-06T06:44:33.106Z,2.83
2023-01-06T06:47:18.212Z,3.45
2023-01-06T06:50:03.769Z,5.23
2023-01-06T06:52:49.079Z,5.43
2023-01-06T06:55:34.590Z,3.85
2023-01-06T06:58:19.704Z,3.25
2023-01-06T07:01:09.550Z,3.58
2023-01-06T07:03:54.752Z,2.97
2023-01-06T07:06:39.868Z,4.93
2023-01-06T07:09:25.168Z,5.40
2023-01-06T07:12:10.488Z,6.75
2023-01-06T07:14:55.763Z,4.97
2023-01-06T07:17:41.879Z,3.13
2023-01-06T07:20:27.774Z,5.85
2023-01-06T07:23:13.178Z,6.63
2023-01-06T07:26:01.469Z,4.03
2023-01-06T07:28:46.627Z,5.03
2023-01-06T07:31:32.036Z,5.17
2023-01-06T07:34:17.356Z,4.90
2023-01-06T07:37:02.551Z,3.78
2023-01-06T07:39:47.844Z,3.78
2023-01-06T07:42:33.204Z,3.65
2023-01-06T07:45:18.450Z,6.13
2023-01-06T07:48:04.628Z,3.28
2023-01-06T07:50:49.630Z,4.55
2023-01-06T07:53:35.419Z,6.70
2023-01-06T07:56:21.796Z,5.43
2023-01-06T07:59:07.026Z,4.50
2023-01-06T08:01:52.356Z,3.60
2023-01-06T08:04:37.556Z,5.55
2023-01-06T08:07:22.856Z,3.90
2023-01-06T08:10:08.604Z,3.95
2023-01-06T08:12:53.487Z,4.57
2023-01-06T08:15:40.182Z,3.78
2023-01-06T08:18:25.303Z,6.50
2023-01-06T08:21:11.302Z,5.20
2023-01-06T08:23:56.227Z,4.18
2023-01-06T08:26:41.515Z,3.83
2023-01-06T08:29:26.787Z,4.43
2023-01-06T08:32:12.100Z,4.50
2023-01-06T08:34:57.424Z,4.38
2023-01-06T08:37:42.670Z,6.57
2023-01-06T08:40:28.033Z,4.20
2023-01-06T08:43:13.347Z,4.78
2023-01-06T08:46:04.403Z,4.60
2023-01-06T08:48:49.601Z,4.20
2023-01-06T08:51:35.696Z,3.00
2023-01-06T08:54:21.212Z,3.27
2023-01-06T08:57:08.311Z,3.58
2023-01-06T08:59:54.033Z,4.55
2023-01-06T09:02:39.278Z,5.28
2023-01-06T09:05:24.520Z,5.63
2023-01-06T09:08:09.699Z,4.30
2023-01-06T09:10:55.165Z,3.92
2023-01-06T09:13:40.868Z,3.53
2023-01-06T09:16:26.258Z,3.38
2023-01-06T09:19:11.478Z,4.88
2023-01-06T09:21:56.758Z,3.73
2023-01-06T09:24:42.103Z,3.95
2023-01-06T09:27:27.385Z,3.47
2023-01-06T09:30:13.292Z,5.50
2023-01-06T09:32:58.290Z,2.95
2023-01-06T09:35:44.624Z,4.10
2023-01-06T09:38:29.980Z,3.97
2023-01-06T09:41:53.852Z,4.80
2023-01-06T09:44:54.990Z,3.50
2023-01-06T09:47:47.515Z,3.30
2023-01-06T09:50:45.736Z,3.93
2023-01-06T09:53:37.688Z,4.53
2023-01-06T09:56:25.237Z,3.08
2023-01-06T09:59:35.379Z,3.78
2023-01-06T10:02:47.005Z,4.35
2023-01-06T10:05:38.390Z,3.57
2023-01-06T10:08:39.094Z,2.50
2023-01-06T10:11:55.734Z,3.65
2023-01-06T10:15:05.332Z,4.30
2023-01-06T10:18:09.733Z,2.88
2023-01-06T10:21:33.519Z,3.90
2023-01-06T10:24:25.236Z,5.43
2023-01-06T10:27:26.693Z,4.47
2023-01-06T10:30:30.188Z,4.65
2023-01-06T10:33:31.104Z,5.45
2023-01-06T10:36:20.687Z,4.87
2023-01-06T10:39:20.926Z,3.28
2023-01-06T10:42:38.699Z,5.15
2023-01-06T10:45:47.854Z,3.42
2023-01-06T10:48:34.519Z,3.03
2023-01-06T10:51:37.812Z,3.23
2023-01-06T10:54:27.813Z,3.47
2023-01-06T10:57:21.936Z,3.10
2023-01-06T11:00:22.681Z,4.13
2023-01-06T11:03:32.481Z,6.13
2023-01-06T11:06:58.672Z,4.33
2023-01-06T11:09:45.191Z,2.83
2023-01-06T11:12:31.850Z,4.38
2023-01-06T11:15:22.414Z,5.00
2023-01-06T11:18:27.121Z,3.47
2023-01-06T11:21:14.356Z,11.07
2023-01-06T11:24:20.098Z,9.20
2023-01-06T11:27:19.220Z,14.85
2023-01-06T11:30:27.532Z,26.33
2023-01-06T11:33:23.418Z,25.65
2023-01-06T11:36:12.144Z,27.97
2023-01-06T11:38:59.013Z,28.02
2023-01-06T11:41:47.193Z,32.22
2023-01-06T11:44:32.290Z,34.95
2023-01-06T11:47:27.327Z,32.60
2023-01-06T11:50:19.929Z,28.57
2023-01-06T11:53:16.789Z,33.85
2023-01-06T11:56:07.498Z,29.02
2023-01-06T11:58:55.811Z,38.70
2023-01-06T12:01:52.622Z,23.33
2023-01-06T12:04:51.524Z,21.77
2023-01-06T12:07:46.751Z,24.73
2023-01-06T12:10:36.126Z,22.20
2023-01-06T12:13:21.652Z,26.60
2023-01-06T12:16:17.543Z,25.23
2023-01-06T12:19:10.013Z,28.23
2023-01-06T12:21:55.446Z,25.92
2023-01-06T12:24:41.042Z,26.77
2023-01-06T12:27:41.492Z,26.67
2023-01-06T12:30:31.074Z,28.42
2023-01-06T12:33:27.505Z,24.53
2023-01-06T12:36:21.963Z,26.05
2023-01-06T12:39:23.715Z,23.58
2023-01-06T12:42:29.519Z,27.55
2023-01-06T12:45:35.249Z,23.77
2023-01-06T12:48:39.255Z,24.60
2023-01-06T12:51:42.862Z,30.98
2023-01-06T12:54:34.505Z,36.08
2023-01-06T12:57:43.814Z,34.70
2023-01-06T13:00:39.670Z,38.38
2023-01-06T13:03:49.778Z,39.53
2023-01-06T13:07:04.524Z,40.47
2023-01-06T13:10:00.255Z,39.90
2023-01-06T13:13:07.093Z,41.67
2023-01-06T13:15:54.544Z,37.53
2023-01-06T13:18:58.464Z,37.37
2023-01-06T13:21:45.238Z,35.03
2023-01-06T13:24:49.208Z,35.55
2023-01-06T13:27:55.662Z,38.65
2023-01-06T13:31:08.446Z,40.40
2023-01-06T13:34:17.272Z,34.70
2023-01-06T13:37:35.508Z,39.28
2023-01-06T13:40:27.278Z,35.17
2023-01-06T13:43:22.728Z,34.70
2023-01-06T13:46:15.044Z,35.45
2023-01-06T13:49:04.032Z,35.97
2023-01-06T13:51:50.640Z,31.92
2023-01-06T13:54:42.114Z,32.88
2023-01-06T13:57:34.067Z,30.65
2023-01-06T14:00:28.437Z,31.23
2023-01-06T14:03:21.475Z,34.53
2023-01-06T14:06:40.119Z,33.25
2023-01-06T14:09:26.815Z,31.58
2023-01-06T14:12:23.382Z,32.00
2023-01-06T14:15:21.961Z,26.55
2023-01-06T14:18:30.114Z,31.00
2023-01-06T14:21:31.440Z,31.90
2023-01-06T14:24:28.741Z,32.10
2023-01-06T14:27:14.439Z,30.40
2023-01-06T14:30:05.324Z,29.35
2023-01-06T14:32:50.276Z,29.97
2023-01-06T14:35:43.950Z,29.48
2023-01-06T14:38:36.507Z,28.67
2023-01-06T14:41:27.596Z,26.80
2023-01-06T14:44:18.292Z,27.05
2023-01-06T14:47:14.846Z,24.77
2023-01-06T14:50:06.330Z,27.50
2023-01-06T14:53:01.024Z,27.60
2023-01-06T14:55:48.942Z,25.55
2023-01-06T14:58:37.302Z,28.45
2023-01-06T15:01:32.452Z,29.15
2023-01-06T15:04:27.912Z,25.37
2023-01-06T15:07:21.790Z,26.73
2023-01-06T15:10:21.476Z,28.38
2023-01-06T15:13:23.737Z,22.50
2023-01-06T15:16:31.172Z,25.95
2023-01-06T15:19:16.715Z,24.57
2023-01-06T15:22:07.527Z,20.80
2023-01-06T15:24:54.301Z,25.30
2023-01-06T15:27:48.168Z,27.60
2023-01-06T15:30:36.527Z,24.98
2023-01-06T15:33:24.149Z,23.93
2023-01-06T15:36:17.548Z,21.13
2023-01-06T15:39:04.694Z,22.50
2023-01-06T15:41:50.557Z,21.33
2023-01-06T15:44:37.519Z,22.02
2023-01-06T15:47:31.895Z,24.97
2023-01-06T15:50:20.084Z,21.02
2023-01-06T15:53:16.527Z,24.02
2023-01-06T15:56:04.034Z,19.77
2023-01-06T15:58:54.423Z,22.85
2023-01-06T16:01:48.140Z,22.73
2023-01-06T16:04:33.571Z,20.95
2023-01-06T16:07:32.627Z,21.83
2023-01-06T16:10:38.335Z,20.55
2023-01-06T16:13:32.441Z,20.83
2023-01-06T16:16:17.489Z,18.90
2023-01-06T16:19:22.815Z,20.65
2023-01-06T16:22:40.946Z,17.55
2023-01-06T16:25:32.338Z,17.58
2023-01-06T16:28:21.549Z,21.23
2023-01-06T16:31:10.973Z,18.67
2023-01-06T16:34:14.035Z,18.85
2023-01-06T16:37:00.967Z,18.58
2023-01-06T16:39:46.444Z,19.45
2023-01-06T16:42:39.655Z,18.02
2023-01-06T16:45:32.901Z,18.60
2023-01-06T16:48:17.953Z,19.35
2023-01-06T16:51:08.870Z,18.27
2023-01-06T16:53:54.420Z,16.88
2023-01-06T16:56:39.662Z,19.80
2023-01-06T16:59:28.004Z,15.73
2023-01-06T17:02:16.083Z,17.67
2023-01-06T17:05:03.081Z,17.00
2023-01-06T17:07:50.122Z,15.73
2023-01-06T17:10:35.287Z,17.55
2023-01-06T17:13:35.726Z,17.87
2023-01-06T17:16:30.913Z,14.80
2023-01-06T17:19:28.049Z,18.08
2023-01-06T17:22:26.269Z,18.35
2023-01-06T17:25:13.875Z,17.27
2023-01-06T17:27:59.257Z,18.13
2023-01-06T17:30:44.907Z,18.23
2023-01-06T17:33:30.474Z,14.40
2023-01-06T17:36:35.297Z,16.50
2023-01-06T17:39:26.755Z,17.42
2023-01-06T17:42:36.012Z,17.53
2023-01-06T17:45:26.938Z,16.55
2023-01-06T17:48:14.126Z,16.92
2023-01-06T17:50:59.587Z,16.25
2023-01-06T17:54:03.462Z,15.90
2023-01-06T17:56:48.721Z,15.47
2023-01-06T17:59:34.071Z,15.32
2023-01-06T18:02:42.654Z,12.00
2023-01-06T18:05:27.828Z,13.85
2023-01-06T18:08:17.279Z,10.73
2023-01-06T18:11:12.003Z,14.03
2023-01-06T18:14:12.170Z,12.48
2023-01-06T18:17:01.480Z,11.27
2023-01-06T18:19:46.964Z,10.52
2023-01-06T18:22:33.801Z,10.43
2023-01-06T18:25:24.100Z,11.17
2023-01-06T18:28:17.814Z,10.48
2023-01-06T18:31:03.465Z,13.10
2023-01-06T18:33:50.553Z,10.10
2023-01-06T18:36:35.799Z,10.93
2023-01-06T18:39:30.678Z,11.77
2023-01-06T18:42:26.362Z,9.70
2023-01-06T18:45:11.186Z,11.05
2023-01-06T18:48:17.470Z,13.18
2023-01-06T18:51:06.376Z,10.95
2023-01-06T18:53:52.440Z,10.83
2023-01-06T18:56:39.008Z,12.15
2023-01-06T18:59:28.640Z,11.73
2023-01-06T19:02:30.943Z,11.77
2023-01-06T19:05:16.139Z,12.90
2023-01-06T19:08:12.700Z,13.73
2023-01-06T19:10:57.828Z,11.63
2023-01-06T19:13:45.288Z,11.60
2023-01-06T19:16:48.922Z,11.48
2023-01-06T19:19:39.654Z,9.80
2023-01-06T19:22:27.279Z,9.00
2023-01-06T19:25:34.829Z,10.60
2023-01-06T19:28:23.730Z,13.00
2023-01-06T19:31:18.950Z,11.93
2023-01-06T19:34:06.049Z,10.23
2023-01-06T19:36:59.500Z,10.77
2023-01-06T19:39:48.711Z,10.25
2023-01-06T19:42:33.940Z,10.80
2023-01-06T19:45:31.211Z,10.82
2023-01-06T19:48:35.121Z,10.38
2023-01-06T19:51:34.073Z,9.70
2023-01-06T19:54:33.846Z,8.90
2023-01-06T19:57:28.071Z,9.10
2023-01-06T20:00:45.420Z,9.52
2023-01-06T20:03:37.386Z,9.50
2023-01-06T20:06:23.565Z,10.43
2023-01-06T20:09:09.643Z,10.40
2023-01-06T20:11:55.086Z,9.27
2023-01-06T20:17:40.136Z,11.65
2023-01-06T20:20:25.590Z,10.57
2023-01-06T20:23:19.035Z,7.93
2023-01-06T20:26:12.688Z,10.35
2023-01-06T20:28:59.209Z,8.07
2023-01-06T20:31:45.397Z,10.20
2023-01-06T20:34:31.024Z,8.93
2023-01-06T20:37:16.446Z,9.23
2023-01-06T20:40:04.756Z,8.30
2023-01-06T20:42:50.863Z,8.13
2023-01-06T20:45:36.198Z,10.38
2023-01-06T20:48:22.035Z,10.90
2023-01-06T20:51:08.311Z,8.88
2023-01-06T20:53:54.303Z,9.63
2023-01-06T20:56:42.221Z,11.18
2023-01-06T20:59:28.392Z,10.48
2023-01-06T21:02:14.813Z,8.97
2023-01-06T21:05:00.673Z,11.25
2023-01-06T21:07:46.053Z,12.05
2023-01-06T21:10:31.549Z,9.88
2023-01-06T21:13:17.062Z,8.40
2023-01-06T21:16:02.572Z,10.63
2023-01-06T21:18:48.755Z,9.00
2023-01-06T21:21:34.513Z,9.90
2023-01-06T21:24:19.931Z,10.95
2023-01-06T21:27:05.282Z,11.27
2023-01-06T21:29:50.780Z,9.27
2023-01-06T21:32:36.931Z,8.25
2023-01-06T21:35:22.829Z,10.80
2023-01-06T21:38:08.224Z,8.45
2023-01-06T21:41:13.725Z,11.30
2023-01-06T21:43:59.106Z,9.30
2023-01-06T21:46:44.651Z,9.57
2023-01-06T21:49:30.945Z,9.63
2023-01-06T21:52:17.150Z,13.75
2023-01-06T21:55:02.594Z,10.35
2023-01-06T21:57:48.669Z,9.73
2023-01-06T22:00:34.086Z,10.60
2023-01-06T22:03:19.719Z,8.65
2023-01-06T22:06:06.527Z,9.23
2023-01-06T22:08:54.128Z,10.88
2023-01-06T22:11:40.800Z,8.13
2023-01-06T22:14:26.384Z,16.30
2023-01-06T22:17:12.620Z,9.82
2023-01-06T22:19:58.126Z,7.65
2023-01-06T22:22:44.232Z,7.97
2023-01-06T22:25:30.264Z,7.10
2023-01-06T22:28:15.694Z,7.70
2023-01-06T22:31:28.302Z,8.05
2023-01-06T22:34:36.617Z,8.88
2023-01-06T22:37:30.677Z,6.80
2023-01-06T22:40:16.178Z,8.27
2023-01-06T22:43:04.742Z,10.55
2023-01-06T22:45:55.236Z,8.07
2023-01-06T22:48:40.860Z,8.88
2023-01-06T22:51:28.556Z,7.40
2023-01-06T22:54:14.533Z,9.30
2023-01-06T22:58:15.059Z,7.93
2023-01-06T23:01:01.315Z,7.68
2023-01-06T23:03:47.087Z,8.45
2023-01-06T23:06:34.147Z,7.28
2023-01-06T23:09:20.008Z,9.27
2023-01-06T23:12:05.993Z,7.35
2023-01-06T23:14:51.492Z,8.82
2023-01-06T23:17:41.969Z,8.35
2023-01-06T23:20:40.710Z,7.85
2023-01-06T23:23:31.927Z,9.03
2023-01-06T23:26:38.923Z,7.03
2023-01-06T23:29:26.948Z,8.68
2023-01-06T23:36:05.575Z,7.40
2023-01-06T23:39:04.791Z,8.43
2023-01-06T23:41:50.598Z,6.65
2023-01-06T23:44:35.738Z,7.90
2023-01-06T23:47:21.301Z,7.20
2023-01-06T23:50:07.397Z,7.45
2023-01-06T23:52:54.789Z,8.57
2023-01-06T23:55:40.212Z,8.85
2023-01-06T23:58:26.895Z,8.60
